Time,TemperatureF,DewpointF,PressureIn,WindDirection,WindDirectionDegrees,WindSpeedMPH,WindSpeedGustMPH,Humidity,HourlyPrecipIn,Conditions,Clouds,dailyrainin,SoftwareType,DateUTC
2013-07-27 00:09:00,66.9,66.0,29.96,North,360,7.0,11.0,95,0.00,,,0.31,weatherlink.com 1.10,2013-07-27 05:09:00,
2013-07-27 00:24:00,66.9,62.0,29.96,North,360,4.0,14.0,85,0.00,,,0.31,weatherlink.com 1.10,2013-07-27 05:24:00,
2013-07-27 00:39:00,66.5,61.0,29.97,North,11,2.0,8.0,83,0.00,,,0.00,weatherlink.com 1.10,2013-07-27 05:39:00,
2013-07-27 00:54:00,65.8,61.0,29.97,North,9,4.0,6.0,84,0.00,,,0.00,weatherlink.com 1.10,2013-07-27 05:54:00,
2013-07-27 01:09:00,65.0,60.0,29.97,NNW,329,4.0,6.0,85,0.00,,,0.00,weatherlink.com 1.10,2013-07-27 06:09:00,
2013-07-27 01:24:00,64.3,59.0,29.98,NNW,332,2.0,7.0,84,0.00,,,0.00,weatherlink.com 1.10,2013-07-27 06:24:00,
2013-07-27 01:40:00,63.4,59.0,29.97,North,10,2.0,5.0,86,0.00,,,0.00,weatherlink.com 1.10,2013-07-27 06:40:00,
2013-07-27 01:55:00,62.4,59.0,29.98,NNW,327,2.0,4.0,88,0.00,,,0.00,weatherlink.com 1.10,2013-07-27 06:55:00,
2013-07-27 02:10:00,61.8,58.0,29.97,NNW,337,0.0,4.0,88,0.00,,,0.00,weatherlink.com 1.10,2013-07-27 07:10:00,
2013-07-27 02:25:00,61.0,58.0,29.97,NNW,338,1.0,4.0,89,0.00,,,0.00,weatherlink.com 1.10,2013-07-27 07:25:00,
2013-07-27 02:40:00,60.3,57.0,29.97,NNW,339,2.0,4.0,90,0.00,,,0.00,weatherlink.com 1.10,2013-07-27 07:40:00,
2013-07-27 02:55:00,60.1,57.0,29.97,NNW,339,3.0,4.0,90,0.00,,,0.00,weatherlink.com 1.10,2013-07-27 07:55:00,
2013-07-27 03:10:00,59.9,57.0,29.97,NNW,330,0.0,4.0,90,0.00,,,0.00,weatherlink.com 1.10,2013-07-27 08:10:00,
2013-07-27 03:25:00,59.4,57.0,29.97,NW,310,0.0,2.0,90,0.00,,,0.00,weatherlink.com 1.10,2013-07-27 08:25:00,
2013-07-27 03:40:00,59.0,56.0,29.97,NW,310,0.0,2.0,91,0.00,,,0.00,weatherlink.com 1.10,2013-07-27 08:40:00,
2013-07-27 03:55:00,58.3,56.0,29.97,NW,310,0.0,1.0,91,0.00,,,0.00,weatherlink.com 1.10,2013-07-27 08:55:00,
2013-07-27 04:10:00,57.7,55.0,29.97,NW,310,0.0,1.0,92,0.00,,,0.00,weatherlink.com 1.10,2013-07-27 09:10:00,
2013-07-27 04:25:00,57.2,55.0,29.98,NW,310,0.0,1.0,93,0.00,,,0.00,weatherlink.com 1.10,2013-07-27 09:25:00,
2013-07-27 04:40:00,56.9,55.0,29.98,NW,310,0.0,2.0,94,0.00,,,0.00,weatherlink.com 1.10,2013-07-27 09:40:00,
2013-07-27 04:55:00,56.6,55.0,29.98,NW,310,0.0,3.0,94,0.00,,,0.00,weatherlink.com 1.10,2013-07-27 09:55:00,
2013-07-27 05:10:00,56.3,55.0,29.98,NW,310,1.0,1.0,94,0.00,,,0.00,weatherlink.com 1.10,2013-07-27 10:10:00,
2013-07-27 05:25:00,56.1,55.0,29.98,NW,317,0.0,2.0,95,0.00,,,0.00,weatherlink.com 1.10,2013-07-27 10:25:00,
2013-07-27 05:40:00,55.9,55.0,29.99,WNW,284,0.0,5.0,95,0.00,,,0.00,weatherlink.com 1.10,2013-07-27 10:40:00,
2013-07-27 05:55:00,55.9,55.0,29.99,NNW,338,0.0,6.0,95,0.00,,,0.00,weatherlink.com 1.10,2013-07-27 10:55:00,
2013-07-27 06:10:00,55.8,54.0,30.00,NNW,333,0.0,5.0,95,0.00,,,0.00,weatherlink.com 1.10,2013-07-27 11:10:00,
2013-07-27 06:25:00,55.8,54.0,29.99,NW,309,8.0,8.0,95,0.00,,,0.00,weatherlink.com 1.10,2013-07-27 11:25:00,
2013-07-27 06:40:00,56.6,55.0,30.00,North,355,3.0,8.0,94,0.00,,,0.00,weatherlink.com 1.10,2013-07-27 11:40:00,
2013-07-27 06:55:00,58.1,56.0,30.00,WNW,296,1.0,8.0,91,0.00,,,0.00,weatherlink.com 1.10,2013-07-27 11:55:00,
2013-07-27 07:10:00,59.6,56.0,30.00,NNW,345,4.0,9.0,87,0.00,,,0.00,weatherlink.com 1.10,2013-07-27 12:10:00,
2013-07-27 07:25:00,60.9,56.0,30.00,NNW,336,3.0,8.0,85,0.00,,,0.00,weatherlink.com 1.10,2013-07-27 12:25:00,
2013-07-27 07:41:00,61.6,56.0,30.00,NNE,15,6.0,9.0,83,0.00,,,0.00,weatherlink.com 1.10,2013-07-27 12:41:00,
2013-07-27 07:56:00,62.8,57.0,30.01,North,349,3.0,10.0,82,0.00,,,0.00,weatherlink.com 1.10,2013-07-27 12:56:00,
2013-07-27 08:11:00,63.1,58.0,30.01,North,9,3.0,11.0,82,0.00,,,0.00,weatherlink.com 1.10,2013-07-27 13:11:00,
2013-07-27 08:26:00,64.3,58.0,30.02,WNW,298,6.0,11.0,81,0.00,,,0.00,weatherlink.com 1.10,2013-07-27 13:26:00,
2013-07-27 08:41:00,64.9,58.0,30.02,NW,325,8.0,14.0,78,0.00,,,0.00,weatherlink.com 1.10,2013-07-27 13:41:00,
2013-07-27 08:56:00,65.0,58.0,30.02,North,360,5.0,12.0,77,0.00,,,0.00,weatherlink.com 1.10,2013-07-27 13:56:00,
2013-07-27 09:11:00,65.8,57.0,30.02,NNE,12,2.0,10.0,74,0.00,,,0.00,weatherlink.com 1.10,2013-07-27 14:11:00,
2013-07-27 09:26:00,67.1,57.0,30.02,North,355,10.0,12.0,70,0.00,,,0.00,weatherlink.com 1.10,2013-07-27 14:26:00,
2013-07-27 09:41:00,67.5,57.0,30.02,NNW,340,5.0,9.0,70,0.00,,,0.00,weatherlink.com 1.10,2013-07-27 14:41:00,
2013-07-27 09:56:00,68.1,57.0,30.02,West,263,5.0,9.0,68,0.00,,,0.00,weatherlink.com 1.10,2013-07-27 14:56:00,
2013-07-27 10:11:00,68.6,57.0,30.02,NNW,333,4.0,12.0,66,0.00,,,0.00,weatherlink.com 1.10,2013-07-27 15:11:00,
2013-07-27 10:26:00,69.5,57.0,30.02,NW,326,7.0,11.0,64,0.00,,,0.00,weatherlink.com 1.10,2013-07-27 15:26:00,
2013-07-27 10:41:00,69.9,56.0,30.02,NW,325,4.0,14.0,62,0.00,,,0.00,weatherlink.com 1.10,2013-07-27 15:41:00,
2013-07-27 10:56:00,70.8,58.0,30.01,North,9,6.0,11.0,64,0.00,,,0.00,weatherlink.com 1.10,2013-07-27 15:56:00,
2013-07-27 11:11:00,70.8,57.0,30.01,NNE,14,7.0,11.0,61,0.01,,,0.01,weatherlink.com 1.10,2013-07-27 16:11:00,
2013-07-27 11:26:00,71.2,57.0,30.01,West,269,4.0,12.0,62,0.01,,,0.01,weatherlink.com 1.10,2013-07-27 16:26:00,
2013-07-27 11:42:00,72.4,58.0,30.01,WNW,291,6.0,11.0,61,0.01,,,0.01,weatherlink.com 1.10,2013-07-27 16:42:00,
2013-07-27 11:57:00,72.4,55.0,30.00,NW,311,4.0,13.0,54,0.01,,,0.01,weatherlink.com 1.10,2013-07-27 16:57:00,
2013-07-27 12:12:00,72.6,55.0,30.00,NNW,340,6.0,18.0,55,0.00,,,0.01,weatherlink.com 1.10,2013-07-27 17:12:00,
2013-07-27 12:27:00,72.8,55.0,30.00,NW,312,3.0,21.0,54,0.00,,,0.01,weatherlink.com 1.10,2013-07-27 17:27:00,
2013-07-27 12:42:00,72.5,57.0,30.00,WNW,292,5.0,10.0,58,0.00,,,0.01,weatherlink.com 1.10,2013-07-27 17:42:00,
2013-07-27 12:57:00,74.5,58.0,30.00,NNW,343,4.0,14.0,57,0.00,,,0.01,weatherlink.com 1.10,2013-07-27 17:57:00,
2013-07-27 13:12:00,74.3,54.0,29.99,West,280,7.0,14.0,50,0.00,,,0.01,weatherlink.com 1.10,2013-07-27 18:12:00,
2013-07-27 13:27:00,72.8,53.0,29.99,WNW,302,2.0,9.0,50,0.00,,,0.01,weatherlink.com 1.10,2013-07-27 18:27:00,
2013-07-27 13:42:00,74.6,54.0,29.98,NW,325,7.0,14.0,49,0.00,,,0.01,weatherlink.com 1.10,2013-07-27 18:42:00,
2013-07-27 13:57:00,74.9,53.0,29.98,NNW,333,1.0,9.0,47,0.00,,,0.01,weatherlink.com 1.10,2013-07-27 18:57:00,
2013-07-27 14:12:00,75.8,55.0,29.97,NW,317,4.0,11.0,48,0.00,,,0.01,weatherlink.com 1.10,2013-07-27 19:12:00,
2013-07-27 14:27:00,75.8,54.0,29.97,NNE,14,6.0,12.0,47,0.00,,,0.01,weatherlink.com 1.10,2013-07-27 19:27:00,
2013-07-27 14:42:00,76.2,54.0,29.96,NNE,17,4.0,12.0,46,0.00,,,0.01,weatherlink.com 1.10,2013-07-27 19:42:00,
2013-07-27 14:57:00,75.9,55.0,29.96,NNE,24,5.0,11.0,48,0.00,,,0.01,weatherlink.com 1.10,2013-07-27 19:57:00,
2013-07-27 15:12:00,75.7,57.0,29.96,NW,311,5.0,12.0,53,0.00,,,0.01,weatherlink.com 1.10,2013-07-27 20:12:00,
2013-07-27 15:27:00,76.4,53.0,29.95,WNW,300,4.0,14.0,45,0.00,,,0.01,weatherlink.com 1.10,2013-07-27 20:27:00,
2013-07-27 15:42:00,76.4,54.0,29.95,NNW,336,4.0,13.0,46,0.00,,,0.01,weatherlink.com 1.10,2013-07-27 20:42:00,
2013-07-27 15:57:00,74.6,56.0,29.95,WNW,282,5.0,11.0,53,0.00,,,0.01,weatherlink.com 1.10,2013-07-27 20:57:00,
2013-07-27 16:12:00,75.9,55.0,29.95,NW,317,7.0,10.0,48,0.00,,,0.01,weatherlink.com 1.10,2013-07-27 21:12:00,
2013-07-27 16:27:00,75.0,54.0,29.95,NNW,347,11.0,12.0,49,0.00,,,0.01,weatherlink.com 1.10,2013-07-27 21:27:00,
2013-07-27 16:42:00,75.5,54.0,29.95,NNW,344,5.0,9.0,48,0.00,,,0.01,weatherlink.com 1.10,2013-07-27 21:42:00,
2013-07-27 16:57:00,74.9,55.0,29.95,NW,313,1.0,10.0,50,0.00,,,0.01,weatherlink.com 1.10,2013-07-27 21:57:00,
2013-07-27 17:27:00,74.8,54.0,29.95,NNW,336,4.0,11.0,48,0.00,,,0.01,weatherlink.com 1.10,2013-07-27 22:27:00,
2013-07-27 17:42:00,75.2,54.0,29.95,NW,307,4.0,10.0,48,0.00,,,0.01,weatherlink.com 1.10,2013-07-27 22:42:00,
2013-07-27 17:57:00,75.7,53.0,29.95,NNW,334,5.0,9.0,46,0.00,,,0.01,weatherlink.com 1.10,2013-07-27 22:57:00,
2013-07-27 18:12:00,74.6,53.0,29.94,NNW,348,3.0,8.0,47,0.00,,,0.01,weatherlink.com 1.10,2013-07-27 23:12:00,
2013-07-27 18:27:00,75.1,55.0,29.94,NW,311,2.0,9.0,49,0.00,,,0.01,weatherlink.com 1.10,2013-07-27 23:27:00,
2013-07-27 18:42:00,73.9,53.0,29.94,WNW,296,4.0,8.0,49,0.00,,,0.01,weatherlink.com 1.10,2013-07-27 23:42:00,
2013-07-27 18:57:00,72.2,52.0,29.94,NNW,333,1.0,5.0,50,0.00,,,0.01,weatherlink.com 1.10,2013-07-27 23:57:00,
2013-07-27 19:12:00,71.3,54.0,29.94,NNW,340,0.0,3.0,55,0.00,,,0.01,weatherlink.com 1.10,2013-07-28 00:12:00,
2013-07-27 19:27:00,70.9,54.0,29.94,WNW,290,1.0,5.0,55,0.00,,,0.01,weatherlink.com 1.10,2013-07-28 00:27:00,
2013-07-27 19:42:00,70.3,54.0,29.94,WNW,291,0.0,4.0,57,0.00,,,0.01,weatherlink.com 1.10,2013-07-28 00:42:00,
2013-07-27 19:57:00,69.8,55.0,29.94,WNW,298,0.0,2.0,60,0.00,,,0.01,weatherlink.com 1.10,2013-07-28 00:57:00,
2013-07-27 20:12:00,68.8,55.0,29.94,WNW,298,0.0,2.0,61,0.00,,,0.01,weatherlink.com 1.10,2013-07-28 01:12:00,
2013-07-27 20:27:00,67.3,54.0,29.95,WNW,298,0.0,0.0,63,0.00,,,0.01,weatherlink.com 1.10,2013-07-28 01:27:00,
2013-07-27 20:42:00,66.0,54.0,29.95,WNW,298,0.0,0.0,66,0.00,,,0.01,weatherlink.com 1.10,2013-07-28 01:42:00,
2013-07-27 20:57:00,64.6,55.0,29.95,WNW,298,0.0,0.0,70,0.00,,,0.01,weatherlink.com 1.10,2013-07-28 01:57:00,
2013-07-27 21:12:00,63.6,54.0,29.95,WNW,298,0.0,0.0,71,0.00,,,0.01,weatherlink.com 1.10,2013-07-28 02:12:00,
2013-07-27 21:27:00,62.9,53.0,29.96,WNW,298,0.0,0.0,71,0.00,,,0.01,weatherlink.com 1.10,2013-07-28 02:27:00,
2013-07-27 21:42:00,61.9,54.0,29.96,WNW,298,0.0,0.0,76,0.00,,,0.01,weatherlink.com 1.10,2013-07-28 02:42:00,
2013-07-27 21:57:00,60.9,54.0,29.97,WNW,298,0.0,0.0,78,0.00,,,0.01,weatherlink.com 1.10,2013-07-28 02:57:00,
2013-07-27 22:12:00,60.0,54.0,29.97,WNW,298,0.0,0.0,81,0.00,,,0.01,weatherlink.com 1.10,2013-07-28 03:12:00,
2013-07-27 22:27:00,59.1,54.0,29.97,ENE,60,0.0,1.0,82,0.00,,,0.01,weatherlink.com 1.10,2013-07-28 03:27:00,
2013-07-27 22:42:00,58.5,54.0,29.96,ENE,60,0.0,0.0,85,0.00,,,0.01,weatherlink.com 1.10,2013-07-28 03:42:00,
2013-07-27 22:57:00,58.2,54.0,29.97,ENE,60,0.0,1.0,86,0.00,,,0.01,weatherlink.com 1.10,2013-07-28 03:57:00,
2013-07-27 23:12:00,57.8,54.0,29.97,ENE,60,0.0,0.0,87,0.00,,,0.01,weatherlink.com 1.10,2013-07-28 04:12:00,
2013-07-27 23:27:00,57.8,54.0,29.97,ENE,60,0.0,1.0,87,0.00,,,0.01,weatherlink.com 1.10,2013-07-28 04:27:00,
2013-07-27 23:42:00,57.2,54.0,29.97,ENE,60,0.0,1.0,88,0.00,,,0.01,weatherlink.com 1.10,2013-07-28 04:42:00,
2013-07-27 23:57:00,56.5,53.0,29.98,ENE,60,0.0,2.0,89,0.00,,,0.01,weatherlink.com 1.10,2013-07-28 04:57:00,